Historyczne dane pomiarowe

Dodano dane terminowe – wersja testowa.

Dane z okresu 1951-2019

Wersja bazy: 1.34 [2019-03-16, lista zmian], aktualizacja planowana na 2019-04-15

Dane meteo z obszaru Polski uzyskane na podstawie danych udostępnionych przez Instytut Meteorologii i Gospodarki Wodnej – Państwowy Instytut Badawczy.

 

Wybierz Datę:    

       

TemperaturaWilgotnośćWiatrCiśnienieOpadyŚniegCzas trwania zjawisk
 Stacja t tx tn tng RH VA  wxwx mslp ppp RRR   cm mm wxwxwxwxwxwxwx
1987-08-14 14.4 20.2 10.0 7.1 73.8- 4.3 3.3---- 2.4------------
1987-08-13 11.7 15.1 6.0 4.1 64.3- 3.0 1.3---- 0.0------------
1987-08-12 11.0 15.6 6.5 5.1 61.8- 3.0 2.0---- 0.1------------
1987-08-11 11.5 14.1 10.2 9.0 72.0- 7.3 3.3---- 5.1------------
1987-08-10 13.3 18.2 12.0 11.5 77.0- 7.3 2.7---- 5.0------------
1987-08-09 17.0 21.8 11.7 8.1 50.3- 3.0 3.3---- 0.5------------
1987-08-08 13.4 18.7 9.3 9.0 48.0- 5.3 0.7---- 0.0------------
1987-08-07 10.8 16.6 6.0 4.1 65.3- 3.3 1.7---- 2.7------------
1987-08-06 11.3 15.5 7.7 6.1 59.0- 4.7 3.3---- 0.2------------
1987-08-05 11.5 16.7 7.0 4.6 61.8- 4.0 2.0---- 0.3------------
1987-08-04 13.8 17.3 10.3 6.6 72.3- 5.0 2.7---- 0.9------------
1987-08-03 13.2 17.1 10.0 9.0 58.3- 2.7 2.3---- 0.0------------
1987-08-02 13.3 16.3 11.0 10.0 62.5- 5.3 2.7---- 2.9------------
1987-08-01 14.2 19.2 8.8 6.6 68.0- 5.3 3.0---- 1.5------------
1987-07-31 15.2 20.2 12.8 12.5 76.5- 8.0 1.0---- 3.9------------
1987-07-30 17.3 23.1 12.5 8.5 51.5- 3.0 0.7---- 1.1------------
1987-07-29 12.9 17.1 9.2 8.0 63.0- 4.0 1.3---- 0.0------------
1987-07-28 13.0 15.8 10.6 9.5 70.3- 5.0 3.3---- 3.4------------
1987-07-27 11.1 15.1 6.0 5.1 61.3- 5.7 3.3---- 0.7------------
1987-07-26 11.9 19.0 8.5 10.7 76.8- 5.3 1.3---- 6.0------------
1987-07-25 18.6 22.6 15.5 14.0 61.8- 4.0 2.0---- 0.5------------
1987-07-24 19.6 25.0 15.5 13.5 63.8- 5.7 3.0---- 0.0------------
1987-07-23 19.8 24.6 11.5 10.0 47.5- 2.7 0.0---- 0.4------------
1987-07-22 18.3 21.7 15.0 14.0 70.5- 5.3 0.0---- 3.0------------
1987-07-21 18.8 23.1 11.6 9.0 60.8- 2.0 0.0---- 7.7------------
1987-07-20 18.4 20.2 17.0 15.9 64.8- 5.0 2.0---- 0.0------------
1987-07-19 19.7 25.8 17.4 16.5 72.0- 5.7 3.3---- 3.0------------
1987-07-18 20.5 25.5 16.0 15.0 67.8- 6.0 2.0---- 0.0------------
1987-07-17 20.3 26.0 14.0 12.0 63.5- 4.0 2.7---- 21.2------------
1987-07-16 19.1 25.0 10.0 7.1 39.3- 0.3 0.7---- 0.0------------
1987-07-15 16.7 21.7 11.5 4.1 46.5- 0.3 2.0---- 0.0------------
1987-07-14 15.0 20.4 8.5 8.0 53.3- 1.0 2.0---- 0.0------------
1987-07-13 16.9 20.4 11.6 9.0 56.5- 4.0 2.0---- 0.0------------
1987-07-12 20.1 26.8 14.2 10.0 57.0- 4.7 5.0---- 1.5------------
1987-07-11 15.9 21.0 8.6 6.1 55.3- 2.7 3.3---- 0.0------------
1987-07-10 12.9 16.8 9.0 7.5 50.0- 3.0 3.0---- 0.0------------
1987-07-09 16.3 23.9 12.8 13.0 75.3- 8.0 1.7---- 4.8------------
1987-07-08 21.8 27.0 15.0 11.6 48.0- 0.3 1.3---- 0.0------------
1987-07-07 20.0 25.0 14.0 8.0 40.3- 0.0 0.7---- 0.0------------
1987-07-06 17.3 21.7 10.6 6.3 40.3- 0.0 0.0---- 0.0------------
1987-07-05 14.3 18.8 11.1 10.0 61.5- 4.7 0.7---- 0.1------------
1987-07-04 17.3 20.7 14.9 13.5 53.5- 5.3 0.7---- 4.9------------
1987-07-03 17.7 21.7 14.9 14.0 59.5- 4.7 1.0---- 0.0------------
1987-07-02 17.2 26.6 15.1 15.4 63.5- 5.3 1.7---- 0.0------------
1987-07-01 25.1 29.1 19.0 15.9 58.5- 2.0 1.3---- 0.1------------
1987-06-30 22.9 28.0 17.0 14.5 56.3- 2.7 1.3---- 0.0------------
1987-06-29 19.0 24.6 14.5 12.5 59.5- 4.0 0.7---- 0.0------------
1987-06-28 16.9 23.1 12.0 11.0 66.3- 5.3 2.0---- 0.5------------
1987-06-27 16.8 20.2 12.5 13.0 72.0- 4.3 1.3---- 0.2------------
1987-06-26 16.4 22.1 9.0 7.1 52.8- 3.7 2.0---- 5.2------------
1987-06-25 13.5 17.7 10.0 10.5 58.8- 5.3 2.0---- 0.0------------
1987-06-24 15.1 19.7 9.5 10.0 57.3- 4.0 2.0---- 3.0------------
1987-06-23 14.7 16.9 11.0 12.0 69.8- 5.3 1.3---- 0.0------------
1987-06-22 16.3 22.1 11.0 8.0 65.8- 4.7 2.0---- 0.6------------
1987-06-21 16.3 22.1 10.0 6.7 42.8- 1.3 1.0---- 0.0------------
1987-06-20 15.5 21.2 7.5 5.1 50.8- 1.0 0.0---- 0.0------------
1987-06-19 10.3 15.6 5.2 6.1 60.0- 3.7 1.3---- 0.8------------
1987-06-18 10.6 14.6 6.5 4.0 71.8- 6.3 2.0---- 7.8------------
1987-06-17 9.8 13.1 7.5 6.6 62.8- 5.3 1.3---- 0.3------------
1987-06-16 13.2 25.0 8.5 11.0 70.0- 7.3 2.0---- 4.3------------
343.4 ms

 

Źródłem pochodzenia danych jest Instytut Meteorologii i Gospodarki Wodnej – Państwowy Instytut Badawczy. Dane Instytutu Meteorologii i Gospodarki Wodnej – Państwowego Instytutu Badawczego zostały przetworzone.

Dane źródłowe można odnaleźć na stronie https://dane.imgw.pl